Time;durP1;ratioP1;P1;durP2;ratioP2;P2;SDS_P1;SDS_P2;PMS_P1;PMS_P2;Temp;Humidity;BMP_temperature;BMP_pressure;BME280_temperature;BME280_humidity;BME280_pressure;Samples;Min_cycle;Max_cycle;Signal;HPM_P1;HPM_P2
2022/07/09 00:01:50;;;;;;;3.30;1.63;;;16.90;90.10;;;;;;5095473;28;20453;-68
2022/07/09 00:04:15;;;;;;;1.83;1.27;;;16.90;90.20;;;;;;5095298;28;20107;-69
2022/07/09 00:06:41;;;;;;;3.58;1.63;;;16.90;90.20;;;;;;5095677;28;20075;-69
2022/07/09 00:09:06;;;;;;;1.85;1.20;;;16.90;90.20;;;;;;5094625;28;20032;-68
2022/07/09 00:11:32;;;;;;;2.10;1.30;;;16.90;90.20;;;;;;5095555;28;20107;-69
2022/07/09 00:13:58;;;;;;;2.40;1.35;;;16.80;90.30;;;;;;5095192;28;20023;-68
2022/07/09 00:16:23;;;;;;;1.45;1.10;;;16.80;90.20;;;;;;5095272;28;20361;-70
2022/07/09 00:18:49;;;;;;;3.22;1.50;;;16.80;90.30;;;;;;5095396;28;20396;-69
2022/07/09 00:21:15;;;;;;;1.83;1.30;;;16.80;90.20;;;;;;5094798;28;20516;-68
2022/07/09 00:23:40;;;;;;;1.75;1.27;;;16.80;90.20;;;;;;5095150;28;20024;-68
2022/07/09 00:26:06;;;;;;;1.88;1.50;;;16.80;90.30;;;;;;5094939;28;20028;-67
2022/07/09 00:28:31;;;;;;;2.70;1.48;;;16.80;90.20;;;;;;5095283;28;20131;-68
2022/07/09 00:30:57;;;;;;;2.40;1.48;;;16.80;90.30;;;;;;5094930;28;20040;-69
2022/07/09 00:33:23;;;;;;;2.13;1.58;;;16.80;90.50;;;;;;5094316;28;20031;-68
2022/07/09 00:35:48;;;;;;;3.60;1.30;;;16.80;90.70;;;;;;5095235;28;20421;-69
2022/07/09 00:38:14;;;;;;;3.08;1.52;;;16.80;90.80;;;;;;5094349;28;20024;-68
2022/07/09 00:40:39;;;;;;;1.60;1.50;;;16.80;90.80;;;;;;5094915;28;20032;-68
2022/07/09 00:43:16;;;;;;;1.67;1.05;;;16.80;90.80;;;;;;5094622;28;20456;-67
2022/07/09 00:45:41;;;;;;;1.88;1.15;;;16.80;90.90;;;;;;5095000;28;20031;-68
2022/07/09 00:48:07;;;;;;;2.25;1.33;;;16.80;90.90;;;;;;5094799;28;20430;-68
2022/07/09 00:50:33;;;;;;;2.10;1.30;;;16.80;91.00;;;;;;5094511;28;20032;-68
2022/07/09 00:52:58;;;;;;;2.08;1.30;;;16.80;90.90;;;;;;5094768;28;20027;-68
2022/07/09 00:55:25;;;;;;;2.95;1.48;;;16.80;90.90;;;;;;5094552;28;20098;-68
2022/07/09 00:57:51;;;;;;;2.47;1.40;;;16.70;91.00;;;;;;5094666;28;20100;-69
2022/07/09 01:00:18;;;;;;;4.78;1.30;;;16.70;91.20;;;;;;5093875;28;20082;-68
2022/07/09 01:02:45;;;;;;;2.03;1.40;;;16.70;91.20;;;;;;5093860;28;20115;-68
2022/07/09 01:05:10;;;;;;;2.28;1.20;;;16.70;91.30;;;;;;5093791;28;20083;-67
2022/07/09 01:07:36;;;;;;;1.23;1.10;;;16.70;91.20;;;;;;5094487;28;20041;-68
2022/07/09 01:10:03;;;;;;;1.65;1.38;;;16.70;91.10;;;;;;5094203;28;20464;-67
2022/07/09 01:12:29;;;;;;;1.90;1.20;;;16.70;91.00;;;;;;5094311;28;20471;-68
2022/07/09 01:14:54;;;;;;;3.97;1.20;;;16.70;91.00;;;;;;5094387;28;20028;-68
2022/07/09 01:17:20;;;;;;;1.95;1.08;;;16.70;91.00;;;;;;5093944;28;20052;-68
2022/07/09 01:19:45;;;;;;;1.23;1.13;;;16.70;90.90;;;;;;5094451;28;20028;-69
2022/07/09 01:22:11;;;;;;;2.63;1.73;;;16.70;90.90;;;;;;5093750;28;20028;-67
2022/07/09 01:24:37;;;;;;;1.80;1.45;;;16.70;91.00;;;;;;5094170;28;20028;-67
2022/07/09 01:27:02;;;;;;;2.22;1.30;;;16.70;90.70;;;;;;5094151;28;20024;-68
2022/07/09 01:29:28;;;;;;;1.70;0.90;;;16.70;90.70;;;;;;5094286;28;20048;-67
2022/07/09 01:31:54;;;;;;;0.90;0.90;;;16.70;90.60;;;;;;5093746;28;20026;-68
2022/07/09 01:34:20;;;;;;;1.48;0.95;;;16.70;90.60;;;;;;5093208;28;20067;-67
2022/07/09 01:36:45;;;;;;;2.17;0.93;;;16.70;90.60;;;;;;5094068;28;20019;-68
2022/07/09 01:39:11;;;;;;;2.83;1.80;;;16.70;90.50;;;;;;5093172;28;20093;-67
2022/07/09 01:41:37;;;;;;;2.75;1.15;;;16.70;90.50;;;;;;5093765;28;20042;-67
2022/07/09 01:44:02;;;;;;;1.90;1.08;;;16.70;90.60;;;;;;5093805;28;20032;-68
2022/07/09 01:46:28;;;;;;;1.48;1.15;;;16.70;90.50;;;;;;5093004;28;20020;-67
2022/07/09 01:48:53;;;;;;;2.85;1.20;;;16.60;90.40;;;;;;5093434;28;20036;-67
2022/07/09 01:51:21;;;;;;;1.85;1.40;;;16.60;90.40;;;;;;5093262;28;20031;-68
2022/07/09 01:53:47;;;;;;;2.45;1.40;;;16.60;90.40;;;;;;5093670;28;20020;-68
2022/07/09 01:56:13;;;;;;;3.15;1.45;;;16.60;90.40;;;;;;5093238;28;20044;-68
2022/07/09 01:58:38;;;;;;;1.50;1.15;;;16.60;90.50;;;;;;5093599;28;20024;-68
2022/07/09 02:01:04;;;;;;;1.00;0.88;;;16.60;90.60;;;;;;5093530;28;20371;-68
2022/07/09 02:03:30;;;;;;;2.22;1.00;;;16.60;90.40;;;;;;5093013;28;20443;-68
2022/07/09 02:05:56;;;;;;;1.35;0.90;;;16.60;90.40;;;;;;5093339;28;20016;-68
2022/07/09 02:08:22;;;;;;;5.03;1.02;;;16.50;90.30;;;;;;5092746;28;20365;-68
2022/07/09 02:10:49;;;;;;;1.13;1.02;;;16.50;90.40;;;;;;5093031;28;20056;-68
2022/07/09 02:13:14;;;;;;;1.80;1.00;;;16.60;90.40;;;;;;5092798;28;20020;-67
2022/07/09 02:15:40;;;;;;;1.60;1.10;;;16.60;90.50;;;;;;5092909;28;20028;-68
2022/07/09 02:18:06;;;;;;;1.80;1.02;;;16.60;90.40;;;;;;5092700;28;20422;-68
2022/07/09 02:20:32;;;;;;;2.30;1.17;;;16.60;90.50;;;;;;5093337;28;20062;-69
2022/07/09 02:22:58;;;;;;;1.80;1.30;;;16.50;90.50;;;;;;5093323;28;20361;-68
2022/07/09 02:25:23;;;;;;;1.35;1.00;;;16.50;90.40;;;;;;5093031;28;20031;-68
2022/07/09 02:27:49;;;;;;;1.38;0.95;;;16.50;90.40;;;;;;5092864;28;20457;-68
2022/07/09 02:30:15;;;;;;;1.33;1.17;;;16.50;90.50;;;;;;5092737;28;20468;-68
2022/07/09 02:32:40;;;;;;;1.40;1.00;;;16.50;90.50;;;;;;5092679;28;20070;-68
2022/07/09 02:35:06;;;;;;;1.92;1.20;;;16.50;90.60;;;;;;5092715;28;20034;-68
2022/07/09 02:37:32;;;;;;;0.95;0.88;;;16.50;90.70;;;;;;5092087;28;20115;-68
2022/07/09 02:39:58;;;;;;;1.70;1.10;;;16.40;90.70;;;;;;5092185;28;20101;-68
2022/07/09 02:42:24;;;;;;;1.13;1.00;;;16.40;90.80;;;;;;5091461;28;20498;-68
2022/07/09 02:44:49;;;;;;;1.65;0.98;;;16.40;90.90;;;;;;5092251;28;20036;-68
2022/07/09 02:47:15;;;;;;;1.05;0.95;;;16.30;91.00;;;;;;5092616;28;20384;-67
2022/07/09 02:49:41;;;;;;;2.10;1.23;;;16.30;91.10;;;;;;5092769;28;20124;-68
2022/07/09 02:52:07;;;;;;;0.93;0.90;;;16.30;91.20;;;;;;5092865;28;20028;-68
2022/07/09 02:54:33;;;;;;;1.33;1.10;;;16.30;91.20;;;;;;5092419;28;20041;-68
2022/07/09 02:56:59;;;;;;;1.73;1.40;;;16.30;91.20;;;;;;5092787;28;20106;-68
2022/07/09 02:59:25;;;;;;;1.52;1.00;;;16.30;91.10;;;;;;5092161;28;20107;-68
2022/07/09 03:01:51;;;;;;;3.40;1.17;;;16.30;91.00;;;;;;5092511;28;20024;-68
2022/07/09 03:04:17;;;;;;;2.25;1.10;;;16.30;91.10;;;;;;5092568;28;20035;-68
2022/07/09 03:06:42;;;;;;;2.15;1.15;;;16.30;91.20;;;;;;5092758;28;20452;-68
2022/07/09 03:09:09;;;;;;;1.50;0.80;;;16.30;91.10;;;;;;5092749;28;20063;-69
2022/07/09 03:11:34;;;;;;;1.60;1.20;;;16.40;91.10;;;;;;5092093;28;20047;-68
2022/07/09 03:14:00;;;;;;;1.00;0.90;;;16.40;91.10;;;;;;5092719;28;20067;-68
2022/07/09 03:16:26;;;;;;;1.10;0.80;;;16.40;91.10;;;;;;5092006;28;20024;-68
2022/07/09 03:18:51;;;;;;;2.00;1.27;;;16.40;91.00;;;;;;5092426;28;20039;-69
2022/07/09 03:21:17;;;;;;;1.33;1.08;;;16.40;90.80;;;;;;5092233;28;20052;-68
2022/07/09 03:23:43;;;;;;;1.42;0.80;;;16.40;90.70;;;;;;5092600;28;20524;-68
2022/07/09 03:26:09;;;;;;;0.95;0.88;;;16.50;90.60;;;;;;5092460;28;20035;-68
2022/07/09 03:28:35;;;;;;;3.38;1.33;;;16.50;90.50;;;;;;5093933;28;20050;-68
2022/07/09 03:31:01;;;;;;;1.75;1.13;;;16.50;90.50;;;;;;5096293;28;20190;-69
2022/07/09 03:33:27;;;;;;;1.20;1.00;;;16.50;90.40;;;;;;5095941;28;20350;-69
2022/07/09 03:35:55;;;;;;;1.50;0.90;;;16.50;90.30;;;;;;5096250;28;20067;-68
2022/07/09 03:38:21;;;;;;;1.52;0.82;;;16.50;90.20;;;;;;5095790;28;20467;-68
2022/07/09 03:40:47;;;;;;;3.38;1.20;;;16.60;90.40;;;;;;5095889;28;20070;-68
2022/07/09 03:43:12;;;;;;;1.85;1.20;;;16.60;90.30;;;;;;5096196;28;20059;-68
2022/07/09 03:45:38;;;;;;;2.15;0.95;;;16.60;90.10;;;;;;5095977;28;20494;-68
2022/07/09 03:48:04;;;;;;;0.98;0.80;;;16.60;90.10;;;;;;5095773;28;20021;-68
2022/07/09 03:50:30;;;;;;;1.40;1.10;;;16.60;90.20;;;;;;5095472;28;20036;-68
2022/07/09 03:52:55;;;;;;;0.80;0.80;;;16.70;90.10;;;;;;5096013;28;20047;-69
2022/07/09 03:55:21;;;;;;;1.77;1.00;;;16.70;89.60;;;;;;5095665;28;20031;-68
2022/07/09 03:57:46;;;;;;;2.85;1.30;;;16.70;89.90;;;;;;5095827;28;20024;-68
2022/07/09 04:00:12;;;;;;;2.95;1.15;;;16.80;89.70;;;;;;5095872;28;20361;-69
2022/07/09 04:02:39;;;;;;;2.10;1.30;;;16.80;89.60;;;;;;5095148;28;20419;-68
2022/07/09 04:05:05;;;;;;;2.42;1.13;;;16.80;89.50;;;;;;5095793;28;20027;-68
2022/07/09 04:07:31;;;;;;;1.92;0.90;;;16.80;89.40;;;;;;5095348;28;20074;-68
2022/07/09 04:09:57;;;;;;;1.00;0.80;;;16.80;89.00;;;;;;5095308;28;20031;-68
2022/07/09 04:12:22;;;;;;;2.90;0.90;;;16.90;89.20;;;;;;5094527;28;20024;-68
2022/07/09 04:14:48;;;;;;;2.33;1.10;;;16.90;89.00;;;;;;5095287;28;20118;-68
2022/07/09 04:17:14;;;;;;;3.30;0.95;;;16.90;88.90;;;;;;5095529;28;20032;-70
2022/07/09 04:19:39;;;;;;;1.38;1.10;;;16.90;88.70;;;;;;5095101;28;20032;-68
2022/07/09 04:22:05;;;;;;;1.45;0.88;;;17.00;88.30;;;;;;5095512;28;20030;-69
2022/07/09 04:24:31;;;;;;;1.10;1.00;;;17.00;88.20;;;;;;5094994;28;20038;-69
2022/07/09 04:26:56;;;;;;;3.00;1.38;;;17.10;88.50;;;;;;5094955;28;20024;-70
2022/07/09 04:29:22;;;;;;;4.00;1.13;;;17.20;88.10;;;;;;5095140;28;20040;-68
2022/07/09 04:31:48;;;;;;;2.00;1.20;;;17.30;87.50;;;;;;5094894;28;20027;-69
2022/07/09 04:34:14;;;;;;;1.33;1.20;;;17.40;87.20;;;;;;5095328;28;20024;-69
2022/07/09 04:36:39;;;;;;;1.63;1.00;;;17.50;86.20;;;;;;5093491;28;20380;-68
2022/07/09 04:39:05;;;;;;;0.95;0.85;;;17.70;85.60;;;;;;5094760;28;20032;-68
2022/07/09 04:41:31;;;;;;;1.20;0.82;;;17.80;84.40;;;;;;5094541;28;20028;-68
2022/07/09 04:43:57;;;;;;;1.27;1.08;;;17.90;83.20;;;;;;5094659;28;20032;-68
2022/07/09 04:46:22;;;;;;;1.75;0.95;;;18.00;82.60;;;;;;5094541;28;20475;-68
2022/07/09 04:48:49;;;;;;;1.63;0.90;;;18.00;81.90;;;;;;5094774;28;20034;-68
2022/07/09 04:51:14;;;;;;;1.75;0.82;;;18.20;81.80;;;;;;5094951;28;20484;-68
2022/07/09 04:53:40;;;;;;;2.05;0.90;;;18.40;81.40;;;;;;5094461;28;20024;-68
2022/07/09 04:56:06;;;;;;;1.02;0.88;;;18.50;79.90;;;;;;5094814;28;20385;-69
2022/07/09 04:58:32;;;;;;;1.45;1.10;;;18.70;80.00;;;;;;5094259;28;20035;-68
2022/07/09 05:00:58;;;;;;;3.22;0.90;;;18.90;78.80;;;;;;5094659;28;20093;-68
2022/07/09 05:03:24;;;;;;;1.60;0.82;;;19.10;77.50;;;;;;5094508;28;20036;-67
2022/07/09 05:05:51;;;;;;;1.83;1.17;;;19.40;76.50;;;;;;5094539;28;20024;-67
2022/07/09 05:08:18;;;;;;;1.10;0.88;;;19.60;75.10;;;;;;5094529;28;20020;-68
2022/07/09 05:10:44;;;;;;;1.27;0.85;;;19.90;73.90;;;;;;5094278;28;20035;-67
2022/07/09 05:13:09;;;;;;;1.10;0.80;;;20.20;72.20;;;;;;5094227;28;20103;-68
2022/07/09 05:15:35;;;;;;;2.80;1.00;;;20.40;71.30;;;;;;5093675;28;20551;-68
2022/07/09 05:18:01;;;;;;;1.30;1.00;;;20.60;69.60;;;;;;5093894;28;20055;-68
2022/07/09 05:20:26;;;;;;;1.20;0.85;;;20.90;68.30;;;;;;5093562;28;20032;-68
2022/07/09 05:22:52;;;;;;;1.33;1.00;;;21.30;67.60;;;;;;5094234;28;20104;-68
2022/07/09 05:25:18;;;;;;;1.25;1.05;;;21.60;66.20;;;;;;5094200;28;20081;-68
2022/07/09 05:27:45;;;;;;;1.60;0.70;;;22.00;64.50;;;;;;5093640;28;20085;-68
2022/07/09 05:30:14;;;;;;;1.75;1.20;;;22.10;63.70;;;;;;5093971;28;20039;-68
2022/07/09 05:32:39;;;;;;;1.20;0.82;;;22.40;62.10;;;;;;5093575;28;20077;-67
2022/07/09 05:35:05;;;;;;;1.35;0.90;;;22.80;61.40;;;;;;5093962;28;20020;-68
2022/07/09 05:37:31;;;;;;;3.05;0.93;;;23.00;60.50;;;;;;5093676;28;20085;-68
2022/07/09 05:39:57;;;;;;;2.47;1.10;;;23.20;59.00;;;;;;5094211;28;20101;-68
2022/07/09 05:42:23;;;;;;;2.45;1.05;;;23.40;58.40;;;;;;5093415;28;20039;-68
2022/07/09 05:44:49;;;;;;;0.90;0.70;;;23.50;58.20;;;;;;5093798;28;20024;-68
2022/07/09 05:47:15;;;;;;;1.05;0.98;;;24.00;57.80;;;;;;5093847;28;20024;-68
2022/07/09 05:49:41;;;;;;;1.25;1.15;;;24.00;56.90;;;;;;5093117;28;20081;-68
2022/07/09 05:52:07;;;;;;;1.50;0.68;;;24.40;56.50;;;;;;5092862;28;20024;-68
2022/07/09 05:54:33;;;;;;;1.83;0.88;;;24.60;55.30;;;;;;5093208;28;20032;-68
2022/07/09 05:56:58;;;;;;;1.20;0.80;;;25.10;54.30;;;;;;5093605;28;20479;-68
2022/07/09 05:59:24;;;;;;;1.92;0.98;;;25.60;52.80;;;;;;5093043;28;20030;-67
2022/07/09 06:01:50;;;;;;;0.90;0.80;;;25.70;51.20;;;;;;5093580;28;20349;-68
2022/07/09 06:04:15;;;;;;;2.55;1.00;;;25.80;50.50;;;;;;5093306;28;20031;-68
2022/07/09 06:06:41;;;;;;;1.20;0.90;;;25.90;51.30;;;;;;5092693;28;20534;-68
2022/07/09 06:09:06;;;;;;;1.48;0.82;;;25.90;49.80;;;;;;5093170;28;20051;-68
2022/07/09 06:11:32;;;;;;;0.93;0.73;;;25.90;50.60;;;;;;5092947;28;20467;-67
2022/07/09 06:13:58;;;;;;;5.15;1.05;;;26.40;49.70;;;;;;5092971;28;20372;-69
2022/07/09 06:16:24;;;;;;;2.47;0.90;;;26.50;49.50;;;;;;5093121;28;20028;-67
2022/07/09 06:18:50;;;;;;;3.17;0.80;;;27.00;48.50;;;;;;5093256;28;20032;-68
2022/07/09 06:21:15;;;;;;;2.92;0.88;;;27.10;47.90;;;;;;5093395;28;20449;-68
2022/07/09 06:23:41;;;;;;;0.70;0.57;;;27.20;47.40;;;;;;5092746;28;20466;-69
2022/07/09 06:26:06;;;;;;;2.63;0.90;;;27.50;47.20;;;;;;5092905;28;20449;-69
2022/07/09 06:28:35;;;;;;;2.80;1.00;;;28.10;46.30;;;;;;5091752;28;20040;-68
2022/07/09 06:31:00;;;;;;;2.15;0.93;;;28.20;45.20;;;;;;5092897;28;20114;-69
2022/07/09 06:33:26;;;;;;;0.93;0.73;;;28.30;45.00;;;;;;5092598;28;20510;-69
2022/07/09 06:35:51;;;;;;;1.38;0.80;;;28.70;45.20;;;;;;5091556;28;20024;-68
2022/07/09 06:38:17;;;;;;;1.13;0.70;;;28.80;44.20;;;;;;5092777;28;20024;-68
2022/07/09 06:40:43;;;;;;;2.60;1.10;;;28.20;44.70;;;;;;5092134;28;20465;-68
2022/07/09 06:43:09;;;;;;;2.53;0.80;;;27.80;45.20;;;;;;5091614;28;20387;-68
2022/07/09 06:45:35;;;;;;;2.47;1.30;;;27.60;45.90;;;;;;5091233;28;20506;-68
2022/07/09 06:48:01;;;;;;;0.57;0.57;;;28.00;45.10;;;;;;5092077;28;20024;-69
2022/07/09 06:50:26;;;;;;;0.80;0.75;;;28.20;45.10;;;;;;5091881;28;20372;-68
2022/07/09 06:52:52;;;;;;;1.13;1.02;;;28.70;44.50;;;;;;5092740;28;20032;-68
2022/07/09 06:55:18;;;;;;;1.38;0.88;;;29.20;44.20;;;;;;5092697;28;20035;-69
2022/07/09 06:57:43;;;;;;;4.47;1.50;;;29.20;43.80;;;;;;5091358;28;20079;-68
2022/07/09 07:00:09;;;;;;;2.10;0.70;;;29.10;43.00;;;;;;5091222;28;20369;-68
2022/07/09 07:02:35;;;;;;;1.20;0.70;;;28.40;43.90;;;;;;5093032;28;20032;-68
2022/07/09 07:05:01;;;;;;;3.67;0.90;;;27.70;45.40;;;;;;5095598;28;20024;-69
2022/07/09 07:07:26;;;;;;;2.03;0.73;;;28.30;45.40;;;;;;5095620;28;20024;-67
2022/07/09 07:09:52;;;;;;;1.23;0.80;;;28.40;44.90;;;;;;5096322;28;20043;-70
2022/07/09 07:12:18;;;;;;;0.90;0.70;;;28.60;44.80;;;;;;5095359;28;20466;-69
2022/07/09 07:14:43;;;;;;;1.50;1.05;;;28.40;44.80;;;;;;5095567;28;20028;-69
2022/07/09 07:17:09;;;;;;;2.05;0.80;;;28.00;45.60;;;;;;5095786;28;20117;-69
2022/07/09 07:19:35;;;;;;;1.60;0.80;;;27.70;46.70;;;;;;5095510;28;20046;-71
2022/07/09 07:22:01;;;;;;;1.67;1.00;;;27.50;47.60;;;;;;5094704;28;20476;-71
2022/07/09 07:24:27;;;;;;;2.63;0.82;;;26.50;48.10;;;;;;5094555;28;20103;-71
2022/07/09 07:26:53;;;;;;;1.35;0.73;;;26.40;48.30;;;;;;5094584;28;20478;-71
2022/07/09 07:29:20;;;;;;;2.00;0.85;;;26.50;48.10;;;;;;5094462;28;20048;-71
2022/07/09 07:31:46;;;;;;;2.35;1.00;;;26.00;48.40;;;;;;5094158;28;20412;-71
2022/07/09 07:34:11;;;;;;;1.83;0.88;;;25.40;49.10;;;;;;5094864;28;20024;-71
2022/07/09 07:36:37;;;;;;;0.98;0.60;;;24.90;49.40;;;;;;5093977;28;20024;-70
2022/07/09 07:39:03;;;;;;;0.70;0.68;;;24.30;50.80;;;;;;5094778;28;20016;-71
2022/07/09 07:41:28;;;;;;;1.02;0.85;;;24.00;51.60;;;;;;5094625;28;20104;-71
2022/07/09 07:43:54;;;;;;;2.83;0.93;;;23.50;52.90;;;;;;5091894;28;20106;-72
2022/07/09 07:46:20;;;;;;;1.20;0.73;;;23.40;53.00;;;;;;5094374;28;20016;-72
2022/07/09 07:48:45;;;;;;;0.93;0.77;;;23.40;52.90;;;;;;5094271;28;20070;-70
2022/07/09 07:51:11;;;;;;;1.58;1.00;;;23.20;53.30;;;;;;5094531;28;20036;-70
2022/07/09 07:53:37;;;;;;;1.85;0.80;;;23.60;53.10;;;;;;5093854;28;20032;-71
2022/07/09 07:56:07;;;;;;;2.30;1.10;;;23.30;53.60;;;;;;5094378;28;20031;-71
2022/07/09 07:58:33;;;;;;;3.33;1.00;;;23.00;54.20;;;;;;5093552;28;20491;-70
2022/07/09 08:00:59;;;;;;;2.30;0.88;;;23.40;53.30;;;;;;5094574;28;20111;-71
2022/07/09 08:03:25;;;;;;;1.13;0.82;;;23.50;52.50;;;;;;5094195;28;20024;-72
2022/07/09 08:05:50;;;;;;;0.55;0.55;;;23.20;53.30;;;;;;5093445;28;20471;-71
2022/07/09 08:08:18;;;;;;;1.23;0.85;;;22.80;54.10;;;;;;5094165;28;20027;-71
2022/07/09 08:10:45;;;;;;;1.35;1.00;;;22.70;54.80;;;;;;5093387;28;20468;-71
2022/07/09 08:13:12;;;;;;;0.75;0.70;;;22.80;54.60;;;;;;5093244;28;20074;-71
2022/07/09 08:15:38;;;;;;;2.30;1.00;;;22.70;55.20;;;;;;5094261;28;20060;-71
2022/07/09 08:18:04;;;;;;;1.00;0.77;;;23.50;55.30;;;;;;5097210;28;21429;-70
2022/07/09 08:20:30;;;;;;;1.83;0.65;;;23.80;52.50;;;;;;5093996;28;20055;-71
2022/07/09 08:22:55;;;;;;;1.13;0.80;;;23.40;53.30;;;;;;5091343;28;20043;-71
2022/07/09 08:25:21;;;;;;;1.35;0.90;;;23.50;53.80;;;;;;5093971;28;20415;-72
2022/07/09 08:27:49;;;;;;;2.95;1.05;;;23.20;54.20;;;;;;5093750;28;20605;-71
2022/07/09 08:30:15;;;;;;;2.58;0.80;;;24.10;53.30;;;;;;5094686;28;20075;-71
2022/07/09 08:32:40;;;;;;;0.52;0.52;;;24.80;51.10;;;;;;5093991;28;20043;-71
2022/07/09 08:35:07;;;;;;;3.00;1.10;;;25.60;50.10;;;;;;5095108;28;20054;-71
2022/07/09 08:37:32;;;;;;;2.78;1.00;;;25.80;48.30;;;;;;5093050;28;20024;-71
2022/07/09 08:40:00;;;;;;;5.90;0.95;;;26.00;48.40;;;;;;5094595;28;20357;-71
2022/07/09 08:42:26;;;;;;;1.42;0.85;;;26.20;47.00;;;;;;5093741;28;20487;-71
2022/07/09 08:44:54;;;;;;;2.00;0.90;;;25.80;46.80;;;;;;5094167;28;20036;-71
2022/07/09 08:47:21;;;;;;;1.08;0.65;;;25.10;47.90;;;;;;5094552;28;20111;-72
2022/07/09 08:49:48;;;;;;;1.13;0.80;;;24.80;49.30;;;;;;5093805;28;20163;-71
2022/07/09 08:52:15;;;;;;;0.77;0.77;;;24.30;50.60;;;;;;5094100;28;20058;-72
2022/07/09 08:54:42;;;;;;;1.15;0.90;;;24.20;50.70;;;;;;5093586;28;20541;-73
2022/07/09 08:57:08;;;;;;;1.88;0.70;;;24.30;51.20;;;;;;5094260;28;20107;-71
2022/07/09 08:59:34;;;;;;;1.17;0.77;;;24.00;50.70;;;;;;5093508;28;20115;-70
2022/07/09 09:02:08;;;;;;;2.10;1.05;;;23.80;50.80;;;;;;5094024;28;20028;-70
2022/07/09 09:04:39;;;;;;;0.60;0.60;;;23.50;51.40;;;;;;5090550;28;20035;-70
2022/07/09 09:07:19;;;;;;;4.55;0.85;;;23.40;51.40;;;;;;5092922;28;20016;-71
2022/07/09 09:09:45;;;;;;;0.90;0.60;;;23.20;51.70;;;;;;5092332;28;20044;-72
2022/07/09 09:12:12;;;;;;;2.03;1.15;;;23.10;52.70;;;;;;5098291;28;20024;-71
2022/07/09 09:14:37;;;;;;;2.78;0.90;;;23.10;52.50;;;;;;5102883;28;20073;-71
2022/07/09 09:17:09;;;;;;;0.70;0.70;;;23.10;51.10;;;;;;5102777;28;20048;-72
2022/07/09 09:19:35;;;;;;;0.90;0.90;;;23.00;50.90;;;;;;5098541;28;20031;-71
2022/07/09 09:22:01;;;;;;;0.77;0.77;;;23.00;51.20;;;;;;5102357;28;20376;-71
2022/07/09 09:24:29;;;;;;;1.30;1.10;;;23.10;51.80;;;;;;5102965;28;20024;-71
2022/07/09 09:26:58;;;;;;;1.20;1.10;;;23.10;50.90;;;;;;5098391;28;20479;-71
2022/07/09 09:29:24;;;;;;;0.93;0.85;;;23.10;50.90;;;;;;5101280;28;20052;-71
2022/07/09 09:31:50;;;;;;;1.65;1.20;;;23.10;50.70;;;;;;5100715;28;20115;-72
2022/07/09 09:34:19;;;;;;;1.27;1.05;;;23.20;49.80;;;;;;5103122;28;20374;-71
2022/07/09 09:36:50;;;;;;;1.30;0.98;;;23.20;49.80;;;;;;5100998;28;20591;-72
2022/07/09 09:39:16;;;;;;;1.27;1.05;;;23.30;49.80;;;;;;5098005;28;20035;-72
2022/07/09 09:41:44;;;;;;;4.63;1.63;;;23.30;50.40;;;;;;5103057;28;20383;-72
2022/07/09 09:44:18;;;;;;;1.65;1.33;;;23.20;51.30;;;;;;5102719;28;20028;-73
2022/07/09 09:46:45;;;;;;;2.20;1.35;;;23.00;51.40;;;;;;5098849;28;20076;-71
2022/07/09 09:49:14;;;;;;;2.28;1.40;;;23.00;50.90;;;;;;5092593;28;20024;-72
2022/07/09 09:52:06;;;;;;;2.97;1.05;;;23.00;51.10;;;;;;5088844;28;20027;-71
2022/07/09 09:54:43;;;;;;;4.45;1.58;;;23.10;51.10;;;;;;5091249;28;20032;-71
2022/07/09 09:57:10;;;;;;;1.92;1.50;;;23.20;50.60;;;;;;5092068;28;20024;-73
2022/07/09 09:59:37;;;;;;;2.05;1.40;;;23.30;50.40;;;;;;5091539;28;20073;-71
2022/07/09 10:02:14;;;;;;;2.20;1.20;;;23.30;50.70;;;;;;5091941;28;20051;-71
2022/07/09 10:04:43;;;;;;;2.33;1.10;;;23.30;51.10;;;;;;5092185;28;20024;-71
2022/07/09 10:07:11;;;;;;;11.05;2.25;;;23.10;50.60;;;;;;5091904;28;20094;-72
2022/07/09 10:09:37;;;;;;;1.85;1.25;;;23.10;50.50;;;;;;5092756;28;20047;-71
2022/07/09 10:12:03;;;;;;;2.15;1.02;;;23.10;50.90;;;;;;5093289;28;20380;-71
2022/07/09 10:14:37;;;;;;;1.10;0.88;;;23.20;50.20;;;;;;5092892;28;20040;-71
2022/07/09 10:17:14;;;;;;;1.35;1.15;;;23.30;49.00;;;;;;5092353;28;20039;-71
2022/07/09 10:19:53;;;;;;;1.33;0.90;;;23.50;48.90;;;;;;5092659;28;20076;-71
2022/07/09 10:22:19;;;;;;;0.98;0.90;;;23.70;47.90;;;;;;5092697;28;20031;-70
2022/07/09 10:24:48;;;;;;;3.13;1.23;;;23.70;47.20;;;;;;5091394;28;20100;-70
2022/07/09 10:27:14;;;;;;;0.82;0.82;;;23.70;47.10;;;;;;5092929;28;20505;-71
2022/07/09 10:29:54;;;;;;;0.70;0.70;;;23.70;48.00;;;;;;5091947;28;20055;-71
2022/07/09 10:32:29;;;;;;;0.98;0.93;;;23.80;47.80;;;;;;5092502;28;20035;-71
2022/07/09 10:35:05;;;;;;;1.83;1.10;;;23.90;47.00;;;;;;5092769;28;20095;-71
2022/07/09 10:37:35;;;;;;;0.93;0.90;;;24.00;46.80;;;;;;5092085;28;20115;-72
2022/07/09 10:40:14;;;;;;;2.00;1.07;;;24.20;47.30;;;;;;5092897;28;20032;-73
2022/07/09 10:42:42;;;;;;;0.90;0.90;;;24.20;47.00;;;;;;5092230;28;20245;-71
2022/07/09 10:45:31;;;;;;;0.70;0.70;;;24.20;46.50;;;;;;5092578;28;20098;-71
2022/07/09 10:47:58;;;;;;;1.33;0.88;;;24.20;46.40;;;;;;5092317;28;20028;-72
2022/07/09 10:50:27;;;;;;;0.90;0.57;;;24.20;46.90;;;;;;5092380;28;20028;-72
2022/07/09 10:52:53;;;;;;;1.40;1.10;;;24.30;47.40;;;;;;5092099;28;20028;-71
2022/07/09 10:55:24;;;;;;;1.30;0.90;;;24.50;46.90;;;;;;5092786;28;20030;-71
2022/07/09 10:57:50;;;;;;;1.00;0.90;;;24.40;46.40;;;;;;5092033;28;20035;-71
2022/07/09 11:00:18;;;;;;;0.90;0.80;;;24.40;46.40;;;;;;5092350;28;20590;-71
2022/07/09 11:02:58;;;;;;;0.70;0.70;;;24.40;47.50;;;;;;5091992;28;20028;-71
2022/07/09 11:05:27;;;;;;;1.02;0.90;;;24.50;46.90;;;;;;5092163;28;20031;-71
2022/07/09 11:07:57;;;;;;;1.63;0.70;;;24.50;47.60;;;;;;5091691;28;20534;-72
2022/07/09 11:10:22;;;;;;;0.85;0.68;;;24.60;47.90;;;;;;5092304;28;20071;-71
2022/07/09 11:12:48;;;;;;;1.15;0.80;;;24.60;47.40;;;;;;5092185;28;20074;-71
2022/07/09 11:15:18;;;;;;;1.35;0.75;;;24.60;46.70;;;;;;5092729;28;20028;-71
2022/07/09 11:17:44;;;;;;;4.03;1.17;;;24.60;46.90;;;;;;5092102;28;20025;-71
2022/07/09 11:20:13;;;;;;;2.05;0.80;;;24.60;46.20;;;;;;5092392;28;20260;-71
2022/07/09 11:22:46;;;;;;;0.80;0.77;;;24.60;46.80;;;;;;5091781;28;20051;-71
2022/07/09 11:25:12;;;;;;;2.95;0.80;;;24.70;47.50;;;;;;5099394;28;20530;-72
2022/07/09 11:27:41;;;;;;;5.00;0.70;;;24.70;46.20;;;;;;5101353;28;20115;-70
2022/07/09 11:30:11;;;;;;;1.08;0.70;;;24.70;46.30;;;;;;5099907;28;20043;-70
2022/07/09 11:32:37;;;;;;;1.13;0.93;;;24.80;46.60;;;;;;5100104;28;20122;-70
2022/07/09 11:35:02;;;;;;;1.20;1.10;;;24.80;47.10;;;;;;5101977;28;20111;-72
2022/07/09 11:37:28;;;;;;;1.90;0.82;;;24.90;47.40;;;;;;5100365;28;20024;-71
2022/07/09 11:39:54;;;;;;;2.45;1.10;;;25.00;46.50;;;;;;5100680;28;20020;-71
2022/07/09 11:42:20;;;;;;;1.00;0.90;;;25.00;46.50;;;;;;5101394;28;20420;-70
2022/07/09 11:44:58;;;;;;;3.08;0.80;;;25.10;46.60;;;;;;5099434;28;20030;-72
2022/07/09 11:47:35;;;;;;;1.33;0.80;;;25.00;46.90;;;;;;5100872;28;20015;-71
2022/07/09 11:50:12;;;;;;;1.88;1.10;;;25.00;47.00;;;;;;5103064;28;20461;-71
2022/07/09 11:52:50;;;;;;;4.82;0.90;;;25.10;46.70;;;;;;5103497;28;20026;-70
2022/07/09 11:55:37;;;;;;;1.45;0.95;;;25.10;47.20;;;;;;5102993;28;20094;-71
2022/07/09 11:58:08;;;;;;;1.10;1.00;;;25.10;47.10;;;;;;5100890;28;20054;-71
2022/07/09 12:00:39;;;;;;;1.73;0.80;;;25.00;46.80;;;;;;5094226;28;20464;-71
2022/07/09 12:03:05;;;;;;;1.13;0.80;;;25.00;46.30;;;;;;5092311;28;20415;-72
2022/07/09 12:05:33;;;;;;;0.60;0.60;;;24.90;46.30;;;;;;5094401;28;20095;-70
2022/07/09 12:08:01;;;;;;;0.77;0.77;;;24.90;46.30;;;;;;5096238;28;20035;-72
2022/07/09 12:10:32;;;;;;;0.80;0.70;;;24.90;46.30;;;;;;5101380;28;20028;-72
2022/07/09 12:12:59;;;;;;;1.90;0.70;;;24.80;45.80;;;;;;5103346;28;20072;-71
2022/07/09 12:15:26;;;;;;;1.23;0.90;;;24.70;46.30;;;;;;5100682;28;20411;-70
2022/07/09 12:17:56;;;;;;;1.05;0.95;;;24.70;46.40;;;;;;5101260;28;20028;-71
2022/07/09 12:20:27;;;;;;;1.23;1.08;;;24.70;47.90;;;;;;5100519;28;21187;-72
2022/07/09 12:22:53;;;;;;;1.50;1.00;;;24.70;46.80;;;;;;5094870;28;20122;-72
2022/07/09 12:25:19;;;;;;;1.92;1.13;;;24.70;46.50;;;;;;5095469;28;20163;-72
2022/07/09 12:27:46;;;;;;;1.10;1.00;;;24.70;47.00;;;;;;5094604;28;20031;-72
2022/07/09 12:30:12;;;;;;;1.10;1.00;;;24.70;46.20;;;;;;5095466;28;20478;-72
2022/07/09 12:32:38;;;;;;;5.25;0.93;;;24.70;46.40;;;;;;5095074;28;20111;-71
2022/07/09 12:35:04;;;;;;;1.52;1.02;;;24.70;46.90;;;;;;5094617;28;20107;-72
2022/07/09 12:37:30;;;;;;;1.45;0.80;;;24.80;46.80;;;;;;5093983;28;20418;-72
2022/07/09 12:39:55;;;;;;;1.30;1.20;;;24.90;46.70;;;;;;5094500;28;20024;-72
2022/07/09 12:42:21;;;;;;;1.10;0.90;;;24.90;46.10;;;;;;5095085;28;20032;-72
2022/07/09 12:44:48;;;;;;;1.10;0.88;;;24.90;45.90;;;;;;5094653;28;20333;-71
2022/07/09 12:47:14;;;;;;;1.55;0.93;;;24.90;44.60;;;;;;5094873;28;20044;-72